createdAt,value
2023-01-03T00:00:41.311Z,10.70
2023-01-03T00:03:09.202Z,10.70
2023-01-03T00:05:37.490Z,10.70
2023-01-03T00:08:05.683Z,10.70
2023-01-03T00:10:33.548Z,10.70
2023-01-03T00:13:02.764Z,10.70
2023-01-03T00:15:30.649Z,10.70
2023-01-03T00:17:58.494Z,10.70
2023-01-03T00:20:26.383Z,10.80
2023-01-03T00:22:54.278Z,10.80
2023-01-03T00:25:22.128Z,10.80
2023-01-03T00:27:49.971Z,10.70
2023-01-03T00:30:19.400Z,10.70
2023-01-03T00:32:47.356Z,10.70
2023-01-03T00:35:15.302Z,10.70
2023-01-03T00:37:43.178Z,10.70
2023-01-03T00:40:12.174Z,10.80
2023-01-03T00:42:55.031Z,10.80
2023-01-03T00:45:25.728Z,10.70
2023-01-03T00:47:54.367Z,10.70
2023-01-03T00:50:22.234Z,10.60
2023-01-03T00:52:50.089Z,10.60
2023-01-03T00:55:18.142Z,10.60
2023-01-03T00:57:45.972Z,10.50
2023-01-03T01:00:14.822Z,10.40
2023-01-03T01:02:44.216Z,10.40
2023-01-03T01:05:12.325Z,10.30
2023-01-03T01:07:40.140Z,10.30
2023-01-03T01:10:08.505Z,10.30
2023-01-03T01:12:36.365Z,10.30
2023-01-03T01:15:04.406Z,10.30
2023-01-03T01:17:32.330Z,10.10
2023-01-03T01:20:01.528Z,10.10
2023-01-03T01:22:29.373Z,10.10
2023-01-03T01:24:57.400Z,10.00
2023-01-03T01:27:25.231Z,9.90
2023-01-03T01:29:53.171Z,9.80
2023-01-03T01:32:21.364Z,9.80
2023-01-03T01:34:49.171Z,9.90
2023-01-03T01:37:18.341Z,9.90
2023-01-03T01:39:47.230Z,9.90
2023-01-03T01:42:32.566Z,9.90
2023-01-03T01:45:01.462Z,9.90
2023-01-03T01:47:34.121Z,9.90
2023-01-03T01:50:16.177Z,9.90
2023-01-03T01:52:49.670Z,9.80
2023-01-03T01:55:19.587Z,9.80
2023-01-03T01:57:48.151Z,9.70
2023-01-03T02:00:16.683Z,9.60
2023-01-03T02:02:47.384Z,9.50
2023-01-03T02:05:17.833Z,9.40
2023-01-03T02:07:49.884Z,9.30
2023-01-03T02:10:18.911Z,9.20
2023-01-03T02:13:07.221Z,9.20
2023-01-03T02:15:51.386Z,9.20
2023-01-03T02:18:32.538Z,9.30
2023-01-03T02:21:31.803Z,9.30
2023-01-03T02:24:35.092Z,9.30
2023-01-03T02:27:13.745Z,9.20
2023-01-03T02:30:19.302Z,9.30
2023-01-03T02:32:53.976Z,9.30
2023-01-03T02:35:30.291Z,9.30
2023-01-03T02:38:04.827Z,9.20
2023-01-03T02:40:37.675Z,9.20
2023-01-03T02:43:10.211Z,9.10
2023-01-03T02:46:01.430Z,9.10
2023-01-03T02:48:46.830Z,9.00
2023-01-03T02:51:20.106Z,8.90
2023-01-03T02:53:50.106Z,9.00
2023-01-03T02:56:22.763Z,8.90
2023-01-03T02:58:56.205Z,8.90
2023-01-03T03:01:25.871Z,8.80
2023-01-03T03:03:55.449Z,8.60
2023-01-03T03:06:28.428Z,8.50
2023-01-03T03:08:56.468Z,8.50
2023-01-03T03:11:44.279Z,8.50
2023-01-03T03:14:18.361Z,8.50
2023-01-03T03:16:50.282Z,8.50
2023-01-03T03:19:44.431Z,8.50
2023-01-03T03:22:47.974Z,8.50
2023-01-03T03:25:20.993Z,8.50
2023-01-03T03:28:09.546Z,8.50
2023-01-03T03:30:41.601Z,8.60
2023-01-03T03:33:13.696Z,8.60
2023-01-03T03:35:48.704Z,8.60
2023-01-03T03:38:23.172Z,8.50
2023-01-03T03:41:18.618Z,8.50
2023-01-03T03:44:10.175Z,8.50
2023-01-03T03:46:52.509Z,8.50
2023-01-03T03:49:41.047Z,8.40
2023-01-03T03:52:14.450Z,8.40
2023-01-03T03:54:45.906Z,8.40
2023-01-03T03:57:20.208Z,8.40
2023-01-03T03:59:52.283Z,8.50
2023-01-03T04:02:22.048Z,8.40
2023-01-03T04:04:54.869Z,8.40
2023-01-03T04:07:24.127Z,8.30
2023-01-03T04:09:52.142Z,8.30
2023-01-03T04:12:20.047Z,8.30
2023-01-03T04:14:47.936Z,8.30
2023-01-03T04:17:15.781Z,8.20
2023-01-03T04:19:43.668Z,8.30
2023-01-03T04:22:11.556Z,8.30
2023-01-03T04:24:40.724Z,8.20
2023-01-03T04:27:08.604Z,8.20
2023-01-03T04:29:39.439Z,8.20
2023-01-03T04:32:08.597Z,8.20
2023-01-03T04:34:36.583Z,8.20
2023-01-03T04:37:04.436Z,8.20
2023-01-03T04:39:32.299Z,8.20
2023-01-03T04:42:01.709Z,8.20
2023-01-03T04:44:28.631Z,8.20
2023-01-03T04:46:56.524Z,8.10
2023-01-03T04:49:24.407Z,8.10
2023-01-03T04:51:52.310Z,8.20
2023-01-03T04:54:20.164Z,8.20
2023-01-03T04:56:48.031Z,8.20
2023-01-03T04:59:17.328Z,8.10
2023-01-03T05:01:52.453Z,8.10
2023-01-03T05:04:20.633Z,8.10
2023-01-03T05:06:48.660Z,8.10
2023-01-03T05:09:16.579Z,8.10
2023-01-03T05:11:44.457Z,8.10
2023-01-03T05:14:14.721Z,8.10
2023-01-03T05:16:44.205Z,8.10
2023-01-03T05:19:12.802Z,8.00
2023-01-03T05:21:58.572Z,8.10
2023-01-03T05:24:44.054Z,8.10
2023-01-03T05:27:12.434Z,8.10
2023-01-03T05:29:40.362Z,8.10
2023-01-03T05:32:09.622Z,8.10
2023-01-03T05:34:37.970Z,8.00
2023-01-03T05:37:05.991Z,8.00
2023-01-03T05:39:33.881Z,8.00
2023-01-03T05:42:01.965Z,8.00
2023-01-03T05:44:32.897Z,8.10
2023-01-03T05:47:01.643Z,8.00
2023-01-03T05:49:30.927Z,8.00
2023-01-03T05:51:58.829Z,8.00
2023-01-03T05:54:27.250Z,8.10
2023-01-03T05:56:55.149Z,8.10
2023-01-03T05:59:23.878Z,8.20
2023-01-03T06:01:52.249Z,8.20
2023-01-03T06:04:20.405Z,8.20
2023-01-03T06:06:49.935Z,8.10
2023-01-03T06:09:18.076Z,8.10
2023-01-03T06:11:45.965Z,8.00
2023-01-03T06:14:13.833Z,8.10
2023-01-03T06:16:59.799Z,8.10
2023-01-03T06:19:27.813Z,8.10
2023-01-03T06:21:57.049Z,8.10
2023-01-03T06:24:24.914Z,8.10
2023-01-03T06:26:52.779Z,8.10
2023-01-03T06:29:20.643Z,8.10
2023-01-03T06:31:48.519Z,8.00
2023-01-03T06:34:16.409Z,8.10
2023-01-03T06:36:44.338Z,8.00
2023-01-03T06:39:13.618Z,8.10
2023-01-03T06:41:41.443Z,8.10
2023-01-03T06:44:11.150Z,8.10
2023-01-03T06:47:04.960Z,7.80
2023-01-03T06:50:01.642Z,7.80
2023-01-03T06:52:46.914Z,7.90
2023-01-03T06:55:16.231Z,8.00
2023-01-03T06:57:44.069Z,8.00
2023-01-03T07:00:13.317Z,8.00
2023-01-03T07:02:41.219Z,7.90
2023-01-03T07:05:09.863Z,7.90
2023-01-03T07:07:37.736Z,7.80
2023-01-03T07:10:06.265Z,7.90
2023-01-03T07:12:53.160Z,7.80
2023-01-03T07:15:21.061Z,7.80
2023-01-03T07:17:48.894Z,7.80
2023-01-03T07:20:16.824Z,7.80
2023-01-03T07:22:44.707Z,7.70
2023-01-03T07:25:12.587Z,7.80
2023-01-03T07:27:41.769Z,7.90
2023-01-03T07:30:10.943Z,8.00
2023-01-03T07:32:38.788Z,8.00
2023-01-03T07:35:08.017Z,7.90
2023-01-03T07:37:36.091Z,8.00
2023-01-03T07:40:04.200Z,8.00
2023-01-03T07:42:49.846Z,8.00
2023-01-03T07:45:19.135Z,8.00
2023-01-03T07:47:47.514Z,7.90
2023-01-03T07:50:15.551Z,8.00
2023-01-03T07:52:43.449Z,8.10
2023-01-03T07:55:11.294Z,8.00
2023-01-03T07:57:39.179Z,8.00
2023-01-03T08:00:08.251Z,8.00
2023-01-03T08:02:41.809Z,8.00
2023-01-03T08:05:10.642Z,7.90
2023-01-03T08:07:38.523Z,7.80
2023-01-03T08:10:24.474Z,7.80
2023-01-03T08:13:10.659Z,7.80
2023-01-03T08:15:39.427Z,7.90
2023-01-03T08:18:08.698Z,7.90
2023-01-03T08:20:37.701Z,7.90
2023-01-03T08:23:05.729Z,7.80
2023-01-03T08:25:33.585Z,7.80
2023-01-03T08:28:02.649Z,7.90
2023-01-03T08:30:31.064Z,8.00
2023-01-03T08:33:02.812Z,8.10
2023-01-03T08:35:35.760Z,8.10
2023-01-03T08:38:07.906Z,8.10
2023-01-03T08:40:42.160Z,8.10
2023-01-03T08:43:11.908Z,8.00
2023-01-03T08:45:40.226Z,8.00
2023-01-03T08:48:09.897Z,8.00
2023-01-03T08:50:39.477Z,8.10
2023-01-03T08:53:07.995Z,8.20
2023-01-03T08:55:35.923Z,8.20
2023-01-03T08:58:03.788Z,8.10
2023-01-03T09:00:31.751Z,8.10
2023-01-03T09:03:00.613Z,8.10
2023-01-03T09:05:28.926Z,8.10
2023-01-03T09:07:58.849Z,8.10
2023-01-03T09:10:27.060Z,8.30
2023-01-03T09:12:54.961Z,8.30
2023-01-03T09:15:23.036Z,8.50
2023-01-03T09:17:51.446Z,8.60
2023-01-03T09:20:19.579Z,8.80
2023-01-03T09:22:48.015Z,8.90
2023-01-03T09:25:17.688Z,9.00
2023-01-03T09:27:47.660Z,9.10
2023-01-03T09:30:16.781Z,9.10
2023-01-03T09:32:44.667Z,9.10
2023-01-03T09:35:12.630Z,9.20
2023-01-03T09:37:45.391Z,9.00
2023-01-03T09:40:15.253Z,8.90
2023-01-03T09:43:15.008Z,8.90
2023-01-03T09:45:50.135Z,9.00
2023-01-03T09:48:19.847Z,9.00
2023-01-03T09:51:17.121Z,9.00
2023-01-03T09:53:57.746Z,9.00
2023-01-03T09:56:43.028Z,9.00
2023-01-03T09:59:32.500Z,9.00
2023-01-03T10:02:29.599Z,9.10
2023-01-03T10:05:23.655Z,9.20
2023-01-03T10:08:08.490Z,9.20
2023-01-03T10:10:46.274Z,9.40
2023-01-03T10:13:24.476Z,9.50
2023-01-03T10:16:02.550Z,9.60
2023-01-03T10:18:41.765Z,9.60
2023-01-03T10:21:16.668Z,9.60
2023-01-03T10:23:44.958Z,9.50
2023-01-03T10:26:14.017Z,9.30
2023-01-03T10:28:45.084Z,9.20
2023-01-03T10:31:26.945Z,9.10
2023-01-03T10:33:55.144Z,8.90
2023-01-03T10:36:23.630Z,9.00
2023-01-03T10:39:04.900Z,9.00
2023-01-03T10:41:37.683Z,8.90
2023-01-03T10:44:05.920Z,8.90
2023-01-03T10:46:50.725Z,9.00
2023-01-03T10:49:30.020Z,8.90
2023-01-03T10:52:02.026Z,8.90
2023-01-03T10:54:33.285Z,8.70
2023-01-03T10:57:01.288Z,8.60
2023-01-03T10:59:31.079Z,8.80
2023-01-03T11:02:03.370Z,8.80
2023-01-03T11:04:33.148Z,9.00
2023-01-03T11:07:13.883Z,9.30
2023-01-03T11:09:51.637Z,9.40
2023-01-03T11:12:29.100Z,9.30
2023-01-03T11:15:00.812Z,9.30
2023-01-03T11:17:30.797Z,9.10
2023-01-03T11:19:58.735Z,8.90
2023-01-03T11:22:38.059Z,9.00
2023-01-03T11:25:20.852Z,9.00
2023-01-03T11:28:21.793Z,8.90
2023-01-03T11:30:55.771Z,8.90
2023-01-03T11:33:40.865Z,9.00
2023-01-03T11:36:27.551Z,8.90
2023-01-03T11:39:15.369Z,9.00
2023-01-03T11:42:12.387Z,9.20
2023-01-03T11:44:58.879Z,9.20
2023-01-03T11:47:36.672Z,9.20
2023-01-03T11:50:19.783Z,9.20
2023-01-03T11:52:55.825Z,9.20
2023-01-03T11:55:52.272Z,9.30
2023-01-03T11:58:45.717Z,9.30
2023-01-03T12:01:27.464Z,9.50
2023-01-03T12:04:09.968Z,9.60
2023-01-03T12:06:49.045Z,9.70
2023-01-03T12:09:24.965Z,9.60
2023-01-03T12:12:21.348Z,9.60
2023-01-03T12:14:52.748Z,9.40
2023-01-03T12:17:26.276Z,9.40
2023-01-03T12:19:59.125Z,9.50
2023-01-03T12:22:35.713Z,9.50
2023-01-03T12:25:09.367Z,9.60
2023-01-03T12:27:42.988Z,9.50
2023-01-03T12:30:27.363Z,9.40
2023-01-03T12:32:58.360Z,9.40
2023-01-03T12:35:31.557Z,9.50
2023-01-03T12:38:00.797Z,9.60
2023-01-03T12:40:39.090Z,9.60
2023-01-03T12:43:13.045Z,9.50
2023-01-03T12:45:49.136Z,9.50
2023-01-03T12:48:29.431Z,9.50
2023-01-03T12:50:57.311Z,9.60
2023-01-03T12:53:32.583Z,9.60
2023-01-03T12:56:22.052Z,9.70
2023-01-03T12:59:02.037Z,9.50
2023-01-03T13:01:38.708Z,9.80
2023-01-03T13:04:15.301Z,9.90
2023-01-03T13:06:51.730Z,9.70
2023-01-03T13:09:27.025Z,9.60
2023-01-03T13:11:57.021Z,9.50
2023-01-03T13:14:26.804Z,9.40
2023-01-03T13:16:56.365Z,9.40
2023-01-03T13:19:53.672Z,9.60
2023-01-03T13:22:49.135Z,9.60
2023-01-03T13:25:40.473Z,9.60
2023-01-03T13:28:33.981Z,9.60
2023-01-03T13:31:39.665Z,9.50
2023-01-03T13:34:30.486Z,9.40
2023-01-03T13:37:18.462Z,9.40
2023-01-03T13:40:12.566Z,9.50
2023-01-03T13:42:42.393Z,9.60
2023-01-03T13:45:55.690Z,9.60
2023-01-03T13:48:33.802Z,9.40
2023-01-03T13:51:34.366Z,9.50
2023-01-03T13:54:05.219Z,9.50
2023-01-03T13:56:49.258Z,9.50
2023-01-03T13:59:30.024Z,9.50
2023-01-03T14:02:14.054Z,9.50
2023-01-03T14:05:14.759Z,9.50
2023-01-03T14:08:12.953Z,9.50
2023-01-03T14:11:04.915Z,9.40
2023-01-03T14:13:38.946Z,9.20
2023-01-03T14:16:23.022Z,9.30
2023-01-03T14:19:02.296Z,9.30
2023-01-03T14:21:41.105Z,9.30
2023-01-03T14:24:20.535Z,9.20
2023-01-03T14:26:49.176Z,9.20
2023-01-03T14:29:21.357Z,9.20
2023-01-03T14:31:55.763Z,9.20
2023-01-03T14:34:31.075Z,9.30
2023-01-03T14:37:04.357Z,9.10
2023-01-03T14:42:04.897Z,9.10
2023-01-03T14:44:33.645Z,9.00
2023-01-03T14:47:05.954Z,9.00
2023-01-03T14:49:41.553Z,9.00
2023-01-03T14:52:15.216Z,8.90
2023-01-03T14:54:45.814Z,8.90
2023-01-03T14:57:20.492Z,8.90
2023-01-03T14:59:49.624Z,8.80
2023-01-03T15:02:20.478Z,8.70
2023-01-03T15:04:52.731Z,8.60
2023-01-03T15:07:33.885Z,8.60
2023-01-03T15:10:16.159Z,8.60
2023-01-03T15:12:47.859Z,8.50
2023-01-03T15:15:24.806Z,8.50
2023-01-03T15:17:59.685Z,8.50
2023-01-03T15:20:35.833Z,8.50
2023-01-03T15:23:04.469Z,8.40
2023-01-03T15:25:36.082Z,8.30
2023-01-03T15:28:25.106Z,8.30
2023-01-03T15:30:54.513Z,8.40
2023-01-03T15:33:33.152Z,8.30
2023-01-03T15:36:05.864Z,8.40
2023-01-03T15:38:36.105Z,8.50
2023-01-03T15:41:14.809Z,8.50
2023-01-03T15:43:42.431Z,8.40
2023-01-03T15:46:14.567Z,8.50
2023-01-03T15:48:50.023Z,8.50
2023-01-03T15:51:17.994Z,8.40
2023-01-03T15:53:45.968Z,8.40
2023-01-03T15:56:29.069Z,8.40
2023-01-03T15:58:58.226Z,8.40
2023-01-03T16:01:26.494Z,8.40
2023-01-03T16:03:56.089Z,8.40
2023-01-03T16:06:23.978Z,8.40
2023-01-03T16:08:52.870Z,8.40
2023-01-03T16:11:26.729Z,8.40
2023-01-03T16:14:02.583Z,8.40
2023-01-03T16:16:34.689Z,8.40
2023-01-03T16:19:06.556Z,8.30
2023-01-03T16:21:34.962Z,8.30
2023-01-03T16:24:03.206Z,8.40
2023-01-03T16:26:31.110Z,8.30
2023-01-03T16:28:59.322Z,8.10
2023-01-03T16:31:32.190Z,8.10
2023-01-03T16:34:00.382Z,7.80
2023-01-03T16:36:33.061Z,7.80
2023-01-03T16:39:01.088Z,7.70
2023-01-03T16:41:30.614Z,7.70
2023-01-03T16:43:58.687Z,7.70
2023-01-03T16:46:29.558Z,7.70
2023-01-03T16:49:00.131Z,7.70
2023-01-03T16:51:32.550Z,7.70
2023-01-03T16:54:04.490Z,7.70
2023-01-03T16:56:32.920Z,7.70
2023-01-03T16:59:00.773Z,7.70
2023-01-03T17:01:28.754Z,7.70
2023-01-03T17:03:56.822Z,7.60
2023-01-03T17:06:35.347Z,7.60
2023-01-03T17:09:12.719Z,7.60
2023-01-03T17:11:40.953Z,7.60
2023-01-03T17:14:16.376Z,7.60
2023-01-03T17:16:44.857Z,7.70
2023-01-03T17:20:01.236Z,7.70
2023-01-03T17:22:07.239Z,7.60
2023-01-03T17:24:36.456Z,7.50
2023-01-03T17:27:05.186Z,7.40
2023-01-03T17:29:33.258Z,7.30
2023-01-03T17:32:01.103Z,7.20
2023-01-03T17:34:31.094Z,6.90
2023-01-03T17:37:01.155Z,6.80
2023-01-03T17:39:29.482Z,6.70
2023-01-03T17:42:13.778Z,6.60
2023-01-03T17:44:42.639Z,6.60
2023-01-03T17:47:39.825Z,6.50
2023-01-03T17:50:09.000Z,6.20
2023-01-03T17:52:38.834Z,6.10
2023-01-03T17:55:17.370Z,6.20
2023-01-03T17:57:46.898Z,6.20
2023-01-03T18:00:19.830Z,6.10
2023-01-03T18:02:48.034Z,6.20
2023-01-03T18:05:22.968Z,6.20
2023-01-03T18:07:52.710Z,6.20
2023-01-03T18:10:24.528Z,6.20
2023-01-03T18:12:53.959Z,6.30
2023-01-03T18:15:22.641Z,6.20
2023-01-03T18:17:52.331Z,6.20
2023-01-03T18:20:21.179Z,6.00
2023-01-03T18:22:49.410Z,5.90
2023-01-03T18:25:22.355Z,5.90
2023-01-03T18:27:54.637Z,5.90
2023-01-03T18:30:23.002Z,5.80
2023-01-03T18:32:50.851Z,5.80
2023-01-03T18:35:28.395Z,5.90
2023-01-03T18:38:00.764Z,6.00
2023-01-03T18:40:29.148Z,6.10
2023-01-03T18:43:12.660Z,6.10
2023-01-03T18:45:41.436Z,6.10
2023-01-03T18:48:14.325Z,6.20
2023-01-03T18:50:42.441Z,6.10
2023-01-03T18:53:15.949Z,6.20
2023-01-03T18:55:44.135Z,6.10
2023-01-03T18:58:24.580Z,6.20
2023-01-03T19:00:52.544Z,6.10
2023-01-03T19:03:23.627Z,6.10
2023-01-03T19:05:51.998Z,6.10
2023-01-03T19:08:22.310Z,6.00
2023-01-03T19:10:50.784Z,6.00
2023-01-03T19:13:30.546Z,5.90
2023-01-03T19:15:58.703Z,6.00
2023-01-03T19:18:32.872Z,6.10
2023-01-03T19:21:01.719Z,6.20
2023-01-03T19:23:29.661Z,6.30
2023-01-03T19:25:57.682Z,6.30
2023-01-03T19:28:28.969Z,6.40
2023-01-03T19:30:57.073Z,6.50
2023-01-03T19:33:25.052Z,6.50
2023-01-03T19:35:52.952Z,6.50
2023-01-03T19:38:20.833Z,6.50
2023-01-03T19:40:49.156Z,6.60
2023-01-03T19:43:22.182Z,6.60
2023-01-03T19:45:51.428Z,6.60
2023-01-03T19:48:21.691Z,6.60
2023-01-03T19:50:50.955Z,6.60
2023-01-03T19:53:18.865Z,6.60
2023-01-03T19:55:48.704Z,6.50
2023-01-03T19:58:20.164Z,6.50
2023-01-03T20:00:49.861Z,6.50
2023-01-03T20:03:28.075Z,6.50
2023-01-03T20:05:56.926Z,6.40
2023-01-03T20:08:24.869Z,6.30
2023-01-03T20:10:54.129Z,6.40
2023-01-03T20:13:24.351Z,6.30
2023-01-03T20:16:00.456Z,6.40
2023-01-03T20:18:34.126Z,6.60
2023-01-03T20:21:08.477Z,6.60
2023-01-03T20:23:37.681Z,6.50
2023-01-03T20:26:06.114Z,6.50
2023-01-03T20:28:34.068Z,6.50
2023-01-03T20:31:02.842Z,6.40
2023-01-03T20:33:32.118Z,6.40
2023-01-03T20:36:13.138Z,6.50
2023-01-03T20:38:46.769Z,6.50
2023-01-03T20:41:16.216Z,6.50
2023-01-03T20:43:44.961Z,6.40
2023-01-03T20:46:18.295Z,6.40
2023-01-03T20:51:35.405Z,6.30
2023-01-03T20:54:03.257Z,6.40
2023-01-03T20:56:32.794Z,6.30
2023-01-03T20:59:00.928Z,6.30
2023-01-03T21:01:28.879Z,6.30
2023-01-03T21:03:58.433Z,6.40
2023-01-03T21:06:29.532Z,6.50
2023-01-03T21:08:58.407Z,6.50
2023-01-03T21:11:28.134Z,6.40
2023-01-03T21:13:56.519Z,6.50
2023-01-03T21:16:31.366Z,6.60
2023-01-03T21:19:06.194Z,6.60
2023-01-03T21:21:34.719Z,6.70
2023-01-03T21:24:03.004Z,6.70
2023-01-03T21:26:30.954Z,6.60
2023-01-03T21:28:58.991Z,6.60
2023-01-03T21:31:27.633Z,6.50
2023-01-03T21:33:55.792Z,6.50
2023-01-03T21:36:29.174Z,6.50
2023-01-03T21:38:57.339Z,6.50
2023-01-03T21:41:27.367Z,6.30
2023-01-03T21:43:56.509Z,6.30
2023-01-03T21:46:25.794Z,6.30
2023-01-03T21:48:54.453Z,6.30
2023-01-03T21:51:35.047Z,6.30
2023-01-03T21:54:07.704Z,6.30
2023-01-03T21:56:44.468Z,6.20
2023-01-03T21:59:13.046Z,6.30
2023-01-03T22:01:54.937Z,6.30
2023-01-03T22:04:24.066Z,6.20
2023-01-03T22:06:52.170Z,6.10
2023-01-03T22:09:38.754Z,6.10
2023-01-03T22:12:06.914Z,6.00
2023-01-03T22:14:36.350Z,6.00
2023-01-03T22:17:04.242Z,5.90
2023-01-03T22:19:32.069Z,5.80
2023-01-03T22:21:59.947Z,5.80
2023-01-03T22:24:29.676Z,5.70
2023-01-03T22:26:57.545Z,5.60
2023-01-03T22:29:25.438Z,5.60
2023-01-03T22:31:53.394Z,5.60
2023-01-03T22:34:21.289Z,5.50
2023-01-03T22:36:49.684Z,5.50
2023-01-03T22:39:17.575Z,5.50
2023-01-03T22:41:46.769Z,5.40
2023-01-03T22:44:14.656Z,5.40
2023-01-03T22:46:42.517Z,5.40
2023-01-03T22:49:10.378Z,5.40
2023-01-03T22:51:38.239Z,5.40
2023-01-03T22:54:06.331Z,5.30
2023-01-03T22:56:34.195Z,5.30
2023-01-03T22:59:03.880Z,5.20
2023-01-03T23:01:31.983Z,5.20
2023-01-03T23:04:01.431Z,5.20
2023-01-03T23:06:31.500Z,5.10
2023-01-03T23:08:59.516Z,5.10
2023-01-03T23:11:46.862Z,5.10
2023-01-03T23:14:18.286Z,5.00
2023-01-03T23:16:46.957Z,4.90
2023-01-03T23:19:17.325Z,4.90
2023-01-03T23:21:46.067Z,4.80
2023-01-03T23:24:15.441Z,4.80
2023-01-03T23:26:43.685Z,4.80
2023-01-03T23:29:14.153Z,4.80
2023-01-03T23:31:43.714Z,4.70
2023-01-03T23:34:12.657Z,4.60
2023-01-03T23:36:42.895Z,4.60
2023-01-03T23:39:13.573Z,4.50
2023-01-03T23:41:41.452Z,4.70
2023-01-03T23:44:09.548Z,4.70
2023-01-03T23:46:37.493Z,4.70
2023-01-03T23:49:06.714Z,4.80
2023-01-03T23:51:34.646Z,4.90
2023-01-03T23:54:02.634Z,4.80
2023-01-03T23:56:30.551Z,4.80
2023-01-03T23:58:58.544Z,4.80
